Time;durP1;ratioP1;P1;durP2;ratioP2;P2;SDS_P1;SDS_P2;PMS_P1;PMS_P2;Temp;Humidity;BMP_temperature;BMP_pressure;BME280_temperature;BME280_humidity;BME280_pressure;Samples;Min_cycle;Max_cycle;Signal;HPM_P1;HPM_P2
2023/04/11 00:00:29;;;;;;;2.87;2.67;;;10.70;90.00;;;;;;4939177;29;20528;-88
2023/04/11 00:02:58;;;;;;;3.43;3.33;;;10.70;90.00;;;;;;4943875;29;20266;-88
2023/04/11 00:05:25;;;;;;;2.77;1.93;;;10.70;90.10;;;;;;4943348;29;20653;-88
2023/04/11 00:07:50;;;;;;;3.63;2.80;;;10.70;90.50;;;;;;4933190;29;20435;-89
2023/04/11 00:10:24;;;;;;;4.70;2.80;;;10.70;90.90;;;;;;4929874;29;20426;-86
2023/04/11 00:12:49;;;;;;;7.70;3.07;;;10.60;91.10;;;;;;4935175;29;20176;-87
2023/04/11 00:15:22;;;;;;;5.43;2.03;;;10.60;91.30;;;;;;4928853;29;20459;-88
2023/04/11 00:17:53;;;;;;;1.80;1.60;;;10.50;91.30;;;;;;4940629;28;20203;-88
2023/04/11 00:20:19;;;;;;;4.63;2.80;;;10.50;91.40;;;;;;4927523;29;20624;-87
2023/04/11 00:22:52;;;;;;;2.77;2.47;;;10.50;91.60;;;;;;4931724;29;20666;-88
2023/04/11 00:25:21;;;;;;;5.20;3.33;;;10.50;91.80;;;;;;4942644;29;20459;-87
2023/04/11 00:27:53;;;;;;;3.30;1.70;;;10.40;91.80;;;;;;4934307;29;20941;-88
2023/04/11 00:30:22;;;;;;;4.67;3.50;;;10.40;91.90;;;;;;4934239;29;20486;-88
2023/04/11 00:32:50;;;;;;;5.23;2.47;;;10.40;92.10;;;;;;4949135;28;20945;-86
2023/04/11 00:35:23;;;;;;;2.97;2.60;;;10.40;92.10;;;;;;4937272;29;20749;-87
2023/04/11 00:37:54;;;;;;;5.33;1.97;;;10.40;92.20;;;;;;4937242;29;20545;-89
2023/04/11 00:40:21;;;;;;;6.50;3.47;;;10.40;92.10;;;;;;4939844;29;20514;-88
2023/04/11 00:42:47;;;;;;;3.80;2.83;;;10.40;92.20;;;;;;4931228;29;20416;-89
2023/04/11 00:45:12;;;;;;;3.20;2.27;;;10.30;92.10;;;;;;4934527;29;20417;-88
2023/04/11 00:47:39;;;;;;;4.50;2.10;;;10.30;92.10;;;;;;4934341;29;20424;-88
2023/04/11 00:50:06;;;;;;;4.23;2.63;;;10.30;91.90;;;;;;4934524;29;20179;-89
2023/04/11 00:52:31;;;;;;;9.30;2.73;;;10.30;91.70;;;;;;4934758;29;20439;-89
2023/04/11 00:54:57;;;;;;;1.97;1.87;;;10.30;91.70;;;;;;4931673;29;20482;-88
2023/04/11 00:57:24;;;;;;;2.07;1.93;;;10.40;91.30;;;;;;4936394;29;20216;-88
2023/04/11 00:59:50;;;;;;;2.50;2.10;;;10.30;91.30;;;;;;4937198;29;20255;-88
2023/04/11 01:02:17;;;;;;;3.63;1.80;;;10.30;91.10;;;;;;4931053;29;20447;-88
2023/04/11 01:04:43;;;;;;;2.40;2.20;;;10.40;90.50;;;;;;4933341;29;20669;-88
2023/04/11 01:07:10;;;;;;;2.63;2.07;;;10.40;90.40;;;;;;4935187;29;20454;-88
2023/04/11 01:09:37;;;;;;;3.80;1.67;;;10.40;89.80;;;;;;4925784;29;20505;-88
2023/04/11 01:12:04;;;;;;;5.07;3.00;;;10.40;89.80;;;;;;4930909;29;20476;-86
2023/04/11 01:14:32;;;;;;;1.77;1.70;;;10.50;89.90;;;;;;4918651;29;20421;-85
2023/04/11 01:17:00;;;;;;;3.17;2.90;;;10.50;89.50;;;;;;4939677;29;20522;-87
2023/04/11 01:19:26;;;;;;;2.90;2.70;;;10.50;89.20;;;;;;4940422;29;20438;-87
2023/04/11 01:21:54;;;;;;;4.50;2.53;;;10.50;88.70;;;;;;4933553;29;20475;-87
2023/04/11 01:24:20;;;;;;;1.83;1.73;;;10.60;88.30;;;;;;4930107;29;20207;-86
2023/04/11 01:26:46;;;;;;;4.60;2.70;;;10.60;88.60;;;;;;4933632;29;21178;-86
2023/04/11 01:29:12;;;;;;;3.70;2.17;;;10.60;88.10;;;;;;4931794;29;20424;-85
2023/04/11 01:31:40;;;;;;;2.30;1.70;;;10.70;87.70;;;;;;4933063;29;20299;-85
2023/04/11 01:34:16;;;;;;;;;;;;;;;;;;;;;
2023/04/11 01:36:42;;;;;;;1.30;1.20;;;10.80;86.50;;;;;;4932430;29;20442;-87
2023/04/11 01:39:10;;;;;;;4.40;1.50;;;10.90;86.10;;;;;;4933224;29;20898;-87
2023/04/11 01:41:37;;;;;;;2.07;1.93;;;10.90;86.10;;;;;;4927496;29;20483;-88
2023/04/11 01:44:03;;;;;;;1.80;1.70;;;11.00;85.90;;;;;;4927361;29;20484;-87
2023/04/11 01:46:32;;;;;;;2.53;1.40;;;11.00;85.50;;;;;;4931922;29;20423;-85
2023/04/11 01:49:00;;;;;;;3.10;2.00;;;11.00;85.50;;;;;;4929595;29;20425;-85
2023/04/11 01:51:26;;;;;;;3.37;2.30;;;11.10;85.40;;;;;;4926349;29;20434;-87
2023/04/11 01:53:51;;;;;;;1.77;1.67;;;11.10;85.00;;;;;;4940055;29;20424;-85
2023/04/11 01:56:19;;;;;;;5.90;2.57;;;11.10;85.90;;;;;;4932297;29;20446;-85
2023/04/11 01:58:44;;;;;;;2.63;2.43;;;11.10;87.20;;;;;;4932216;29;20200;-86
2023/04/11 02:01:12;;;;;;;1.50;1.40;;;11.00;89.30;;;;;;4924456;29;21012;-88
2023/04/11 02:03:38;;;;;;;1.60;1.50;;;10.90;91.10;;;;;;4933041;29;20187;-89
2023/04/11 02:06:04;;;;;;;3.37;2.10;;;10.70;93.30;;;;;;4932607;29;21076;-86
2023/04/11 02:08:29;;;;;;;3.60;3.00;;;10.50;95.70;;;;;;4933967;29;20522;-88
2023/04/11 02:10:57;;;;;;;2.83;2.40;;;10.30;97.30;;;;;;4932374;29;20498;-87
2023/04/11 02:13:23;;;;;;;6.73;2.67;;;10.00;97.30;;;;;;4936599;29;20192;-88
2023/04/11 02:15:48;;;;;;;1.70;1.60;;;9.70;97.30;;;;;;4932583;29;20424;-89
2023/04/11 02:18:14;;;;;;;2.80;1.47;;;9.50;97.30;;;;;;4919993;29;20725;-87
2023/04/11 02:20:39;;;;;;;3.13;2.70;;;9.30;97.30;;;;;;4926841;29;20332;-88
2023/04/11 02:23:05;;;;;;;3.23;1.93;;;9.20;97.30;;;;;;4945638;29;20599;-89
2023/04/11 02:25:31;;;;;;;2.60;1.83;;;9.10;97.30;;;;;;4924146;29;20219;-87
2023/04/11 02:27:56;;;;;;;4.50;3.73;;;9.00;97.30;;;;;;4929983;29;20748;-87
2023/04/11 02:30:22;;;;;;;3.33;2.03;;;9.00;97.30;;;;;;4932716;29;20191;-90
2023/04/11 02:32:50;;;;;;;7.30;3.57;;;9.00;97.30;;;;;;4939032;29;20188;-87
2023/04/11 02:35:18;;;;;;;1.80;1.70;;;9.00;97.30;;;;;;4935393;29;20456;-87
2023/04/11 02:37:44;;;;;;;7.43;3.97;;;8.90;97.30;;;;;;4937906;29;20451;-87
2023/04/11 02:40:10;;;;;;;2.80;2.50;;;8.90;97.30;;;;;;4932031;29;20420;-88
2023/04/11 02:42:35;;;;;;;2.40;2.20;;;8.90;97.30;;;;;;4935305;29;20179;-88
2023/04/11 02:45:01;;;;;;;4.33;3.23;;;8.90;97.30;;;;;;4926221;29;20251;-87
2023/04/11 02:47:27;;;;;;;2.77;2.23;;;8.90;97.30;;;;;;4929979;29;20191;-88
2023/04/11 02:49:52;;;;;;;4.10;1.93;;;8.80;97.30;;;;;;4928735;29;20276;-88
2023/04/11 02:52:18;;;;;;;3.13;2.53;;;8.80;97.30;;;;;;4922388;29;20212;-87
2023/04/11 02:54:47;;;;;;;1.93;1.83;;;8.80;97.30;;;;;;4944339;28;20717;-87
2023/04/11 02:57:12;;;;;;;3.53;2.50;;;8.70;97.30;;;;;;4922366;29;20514;-87
2023/04/11 02:59:38;;;;;;;3.43;2.80;;;8.70;97.30;;;;;;4916988;29;20436;-86
2023/04/11 03:02:03;;;;;;;4.70;3.00;;;8.60;97.30;;;;;;4924528;29;20207;-87
2023/04/11 03:04:29;;;;;;;2.83;2.63;;;8.60;97.30;;;;;;4941231;29;20274;-87
2023/04/11 03:06:55;;;;;;;2.67;2.33;;;8.60;97.30;;;;;;4934307;29;20573;-87
2023/04/11 03:09:22;;;;;;;7.10;2.70;;;8.60;97.30;;;;;;4934279;28;20187;-87
2023/04/11 03:11:47;;;;;;;4.90;3.10;;;8.50;97.30;;;;;;4942092;28;20502;-88
2023/04/11 03:14:13;;;;;;;5.20;3.20;;;8.50;97.30;;;;;;4932156;29;20498;-87
2023/04/11 03:16:38;;;;;;;4.57;3.43;;;8.50;97.30;;;;;;4924716;29;20196;-85
2023/04/11 03:19:04;;;;;;;2.00;1.67;;;8.50;97.30;;;;;;4929053;29;20184;-87
2023/04/11 03:21:30;;;;;;;3.63;2.30;;;8.50;97.30;;;;;;4927399;29;20278;-86
2023/04/11 03:23:56;;;;;;;1.90;1.77;;;8.50;97.30;;;;;;4931234;29;20421;-86
2023/04/11 03:26:25;;;;;;;5.00;2.40;;;8.40;97.30;;;;;;4933354;29;20601;-87
2023/04/11 03:28:52;;;;;;;7.03;3.00;;;8.40;97.30;;;;;;4936316;29;20176;-86
2023/04/11 03:31:17;;;;;;;8.20;3.13;;;8.40;97.30;;;;;;4926436;29;20439;-87
2023/04/11 03:33:44;;;;;;;2.27;2.07;;;8.40;97.30;;;;;;4934813;29;20975;-88
2023/04/11 03:36:10;;;;;;;4.83;1.87;;;8.40;97.30;;;;;;4950988;28;20180;-87
2023/04/11 03:38:36;;;;;;;2.07;1.93;;;8.40;97.30;;;;;;4932402;29;20490;-87
2023/04/11 03:41:01;;;;;;;4.07;3.60;;;8.40;97.30;;;;;;4941645;29;20253;-89
2023/04/11 03:43:27;;;;;;;5.37;3.80;;;8.40;97.30;;;;;;4930108;29;20183;-87
2023/04/11 03:45:52;;;;;;;2.47;2.37;;;8.40;97.30;;;;;;4942171;29;20172;-87
2023/04/11 03:48:18;;;;;;;4.23;2.70;;;8.40;97.30;;;;;;4938341;29;20608;-88
2023/04/11 03:50:43;;;;;;;3.90;3.27;;;8.40;97.30;;;;;;4930393;29;20283;-87
2023/04/11 03:53:09;;;;;;;1.73;1.63;;;8.40;97.30;;;;;;4939903;29;20184;-87
2023/04/11 03:55:34;;;;;;;2.33;2.13;;;8.40;97.30;;;;;;4936928;29;20194;-88
2023/04/11 03:58:00;;;;;;;6.20;3.70;;;8.40;97.30;;;;;;4934992;29;20211;-87
2023/04/11 04:00:27;;;;;;;3.20;2.30;;;8.40;97.30;;;;;;4935523;29;20603;-88
2023/04/11 04:02:52;;;;;;;6.33;3.10;;;8.50;97.30;;;;;;4926041;29;20180;-89
2023/04/11 04:05:18;;;;;;;4.63;3.70;;;8.50;97.30;;;;;;4943650;28;20420;-87
2023/04/11 04:07:43;;;;;;;4.50;2.60;;;8.50;97.30;;;;;;4929009;29;20194;-88
2023/04/11 04:10:09;;;;;;;4.77;3.60;;;8.50;97.30;;;;;;4938033;29;20198;-88
2023/04/11 04:12:34;;;;;;;6.80;2.73;;;8.50;97.30;;;;;;4946117;29;20172;-91
2023/04/11 04:15:00;;;;;;;3.87;3.67;;;8.50;97.30;;;;;;4951430;29;20236;-90
2023/04/11 04:17:26;;;;;;;5.10;2.93;;;8.50;97.30;;;;;;4942643;28;20778;-88
2023/04/11 04:19:51;;;;;;;5.77;3.90;;;8.50;97.30;;;;;;4928557;29;20184;-88
2023/04/11 04:22:17;;;;;;;3.00;2.00;;;8.50;97.30;;;;;;4934707;29;20479;-88
2023/04/11 04:24:46;;;;;;;2.87;2.47;;;8.50;97.30;;;;;;4935592;29;20182;-88
2023/04/11 04:27:17;;;;;;;8.83;4.10;;;8.50;97.30;;;;;;4938297;29;20186;-90
2023/04/11 04:29:46;;;;;;;1.73;1.63;;;8.50;97.30;;;;;;4934171;29;20451;-89
2023/04/11 04:32:21;;;;;;;1.90;1.80;;;8.50;97.30;;;;;;4942015;28;20451;-88
2023/04/11 04:34:48;;;;;;;13.40;3.43;;;8.60;97.30;;;;;;4933801;29;20959;-88
2023/04/11 04:37:21;;;;;;;3.00;2.07;;;8.60;97.30;;;;;;4929591;29;20455;-88
2023/04/11 04:39:55;;;;;;;2.90;2.50;;;8.70;97.30;;;;;;4948208;28;20478;-88
2023/04/11 04:42:22;;;;;;;3.53;3.33;;;8.70;97.30;;;;;;4937229;29;20454;-88
2023/04/11 04:44:49;;;;;;;2.20;2.03;;;8.70;97.30;;;;;;4927358;29;20415;-88
2023/04/11 04:47:15;;;;;;;6.87;2.53;;;8.70;97.30;;;;;;4931776;29;20518;-89
2023/04/11 04:49:45;;;;;;;2.43;2.27;;;8.80;97.30;;;;;;4931744;29;20855;-90
2023/04/11 04:52:12;;;;;;;5.47;4.20;;;8.80;97.30;;;;;;4935369;29;20448;-88
2023/04/11 04:54:38;;;;;;;1.67;1.57;;;8.80;97.30;;;;;;4929165;29;20568;-87
2023/04/11 04:57:05;;;;;;;3.73;2.27;;;8.90;97.30;;;;;;4932481;29;20490;-88
2023/04/11 04:59:30;;;;;;;1.47;1.37;;;8.90;97.30;;;;;;4925004;29;20471;-87
2023/04/11 05:01:56;;;;;;;1.83;1.73;;;8.90;97.30;;;;;;4932256;29;20451;-88
2023/04/11 05:04:22;;;;;;;3.50;2.47;;;8.90;97.30;;;;;;4926339;29;20278;-88
2023/04/11 05:06:50;;;;;;;3.50;3.27;;;8.90;97.30;;;;;;4937734;29;20179;-87
2023/04/11 05:09:16;;;;;;;3.37;2.50;;;8.90;97.30;;;;;;4933446;29;20176;-87
2023/04/11 05:11:41;;;;;;;2.80;2.53;;;8.90;97.30;;;;;;4930997;29;20440;-86
2023/04/11 05:14:07;;;;;;;3.60;2.17;;;8.90;97.30;;;;;;4932804;29;20549;-86
2023/04/11 05:16:33;;;;;;;3.17;2.30;;;8.90;97.30;;;;;;4936129;29;20185;-86
2023/04/11 05:18:58;;;;;;;2.63;2.43;;;8.90;97.30;;;;;;4949071;28;20254;-87
2023/04/11 05:21:24;;;;;;;6.83;4.03;;;8.80;97.30;;;;;;4921564;29;20206;-88
2023/04/11 05:23:49;;;;;;;4.80;2.80;;;8.80;97.30;;;;;;4931027;29;20192;-87
2023/04/11 05:26:15;;;;;;;6.37;3.57;;;8.80;97.30;;;;;;4924604;29;20172;-87
2023/04/11 05:28:41;;;;;;;2.50;2.40;;;8.80;97.30;;;;;;4931175;29;20191;-87
2023/04/11 05:31:07;;;;;;;2.93;2.73;;;8.80;97.30;;;;;;4928882;29;20207;-86
2023/04/11 05:33:33;;;;;;;3.10;2.60;;;8.80;97.30;;;;;;4942811;29;20456;-87
2023/04/11 05:35:59;;;;;;;4.90;4.17;;;8.80;97.30;;;;;;4930769;29;20423;-87
2023/04/11 05:38:25;;;;;;;4.40;3.17;;;8.80;97.30;;;;;;4947798;28;20574;-87
2023/04/11 05:40:50;;;;;;;1.87;1.77;;;8.90;97.30;;;;;;4927664;29;20432;-87
2023/04/11 05:43:18;;;;;;;1.90;1.77;;;8.90;97.30;;;;;;4925128;29;20177;-86
2023/04/11 05:45:46;;;;;;;1.90;1.80;;;8.90;97.30;;;;;;4924993;29;20179;-87
2023/04/11 05:48:17;;;;;;;1.43;1.33;;;8.90;97.30;;;;;;4931038;29;20424;-88
2023/04/11 05:50:43;;;;;;;2.50;2.30;;;8.90;97.30;;;;;;4937315;29;20455;-87
2023/04/11 05:53:09;;;;;;;3.17;2.93;;;9.00;97.30;;;;;;4928656;29;20475;-88
2023/04/11 05:55:35;;;;;;;1.70;1.60;;;9.00;97.30;;;;;;4932036;29;20821;-87
2023/04/11 05:58:01;;;;;;;2.07;1.90;;;9.00;97.30;;;;;;4929601;29;20238;-87
2023/04/11 06:00:31;;;;;;;1.47;1.43;;;9.00;97.30;;;;;;4934432;29;20903;-88
2023/04/11 06:02:57;;;;;;;2.30;2.10;;;9.00;97.30;;;;;;4928350;29;20191;-87
2023/04/11 06:05:23;;;;;;;3.53;2.70;;;9.10;97.30;;;;;;4930302;29;20420;-87
2023/04/11 06:07:49;;;;;;;2.40;1.80;;;9.10;97.30;;;;;;4933136;29;20726;-90
2023/04/11 06:10:15;;;;;;;6.00;2.27;;;9.10;97.30;;;;;;4937091;29;20463;-87
2023/04/11 06:12:40;;;;;;;1.73;1.63;;;9.10;97.30;;;;;;4931903;29;20435;-87
2023/04/11 06:15:08;;;;;;;2.00;1.90;;;9.20;97.30;;;;;;4920261;29;20256;-87
2023/04/11 06:17:33;;;;;;;3.10;3.00;;;9.20;97.30;;;;;;4928737;29;20258;-87
2023/04/11 06:20:00;;;;;;;1.30;1.20;;;9.20;97.30;;;;;;4928533;29;20548;-87
2023/04/11 06:22:25;;;;;;;1.73;1.57;;;9.20;97.30;;;;;;4929166;29;20227;-88
2023/04/11 06:24:51;;;;;;;2.33;2.13;;;9.20;97.30;;;;;;4931741;29;20424;-88
2023/04/11 06:27:17;;;;;;;1.40;1.30;;;9.20;97.30;;;;;;4930325;29;20634;-88
2023/04/11 06:29:42;;;;;;;1.93;1.83;;;9.20;97.30;;;;;;4934064;29;20179;-88
2023/04/11 06:32:10;;;;;;;3.17;1.90;;;9.20;97.30;;;;;;4927546;29;20214;-88
2023/04/11 06:34:35;;;;;;;6.20;2.80;;;9.20;97.30;;;;;;4925241;29;20187;-91
2023/04/11 06:37:01;;;;;;;3.53;2.37;;;9.20;97.30;;;;;;4931827;29;20419;-88
2023/04/11 06:39:26;;;;;;;4.07;2.80;;;9.30;97.30;;;;;;4938925;29;20669;-88
2023/04/11 06:41:52;;;;;;;1.47;1.37;;;9.30;97.30;;;;;;4929672;29;20393;-89
2023/04/11 06:44:17;;;;;;;2.60;2.40;;;9.30;97.30;;;;;;4930492;29;20180;-88
2023/04/11 06:46:43;;;;;;;1.30;1.20;;;9.30;97.30;;;;;;4926910;29;20184;-90
2023/04/11 06:49:10;;;;;;;2.60;2.13;;;9.30;97.30;;;;;;4932242;29;20673;-88
2023/04/11 06:51:36;;;;;;;1.20;1.10;;;9.40;97.30;;;;;;4937051;28;20593;-88
2023/04/11 06:54:02;;;;;;;1.40;1.30;;;9.40;97.30;;;;;;4922723;29;20428;-89
2023/04/11 06:56:31;;;;;;;2.63;2.43;;;9.40;97.30;;;;;;4931205;29;20190;-88
2023/04/11 06:59:01;;;;;;;19.67;3.53;;;9.40;97.30;;;;;;4929183;29;20934;-88
2023/04/11 07:01:34;;;;;;;1.00;0.90;;;9.50;97.30;;;;;;4936267;29;20554;-90
2023/04/11 07:04:00;;;;;;;1.73;1.50;;;9.50;97.30;;;;;;4932701;29;20728;-89
2023/04/11 07:06:29;;;;;;;1.43;1.20;;;9.50;97.30;;;;;;4930750;29;20530;-90
2023/04/11 07:08:55;;;;;;;1.67;1.67;;;9.60;97.30;;;;;;4938134;29;20861;-89
2023/04/11 07:11:21;;;;;;;1.10;1.00;;;9.60;97.30;;;;;;4935033;29;20444;-89
2023/04/11 07:13:49;;;;;;;1.00;0.90;;;9.60;97.30;;;;;;4946283;29;20434;-89
2023/04/11 07:16:14;;;;;;;0.97;0.87;;;9.60;97.30;;;;;;4932029;29;20183;-90
2023/04/11 07:18:40;;;;;;;3.10;1.90;;;9.60;97.30;;;;;;4928417;29;20467;-89
2023/04/11 07:21:11;;;;;;;1.00;0.90;;;9.70;97.30;;;;;;4934967;29;20196;-89
2023/04/11 07:23:36;;;;;;;1.20;1.10;;;9.70;97.30;;;;;;4928328;29;20645;-88
2023/04/11 07:26:03;;;;;;;1.77;1.67;;;9.70;97.30;;;;;;4935932;29;20424;-90
2023/04/11 07:28:31;;;;;;;1.77;1.70;;;9.80;97.30;;;;;;4923197;29;20184;-89
2023/04/11 07:30:57;;;;;;;1.80;1.30;;;9.80;97.30;;;;;;4928300;29;20471;-89
2023/04/11 07:33:22;;;;;;;1.53;1.50;;;9.80;97.30;;;;;;4941898;29;21017;-89
2023/04/11 07:35:48;;;;;;;1.67;1.57;;;9.90;97.30;;;;;;4947756;28;20454;-89
2023/04/11 07:38:20;;;;;;;1.20;1.10;;;9.90;97.30;;;;;;4937531;29;20219;-89
2023/04/11 07:40:46;;;;;;;0.80;0.70;;;9.90;97.30;;;;;;4952996;28;20204;-88
2023/04/11 07:43:11;;;;;;;1.17;1.07;;;9.90;97.30;;;;;;4956431;28;20430;-89
2023/04/11 07:45:39;;;;;;;1.20;1.10;;;10.00;97.30;;;;;;4929016;29;20557;-87
2023/04/11 07:48:05;;;;;;;3.23;0.90;;;10.00;97.30;;;;;;4950256;28;20202;-89
2023/04/11 07:50:30;;;;;;;5.57;3.07;;;10.10;97.30;;;;;;4931026;29;20988;-89
2023/04/11 07:53:03;;;;;;;1.00;0.90;;;10.10;97.30;;;;;;4925554;29;20407;-90
2023/04/11 07:55:31;;;;;;;1.10;1.00;;;10.20;97.30;;;;;;4933601;29;20184;-90
2023/04/11 07:58:01;;;;;;;1.00;0.90;;;10.30;97.30;;;;;;4937914;29;20464;-90
2023/04/11 08:00:34;;;;;;;1.00;0.90;;;10.40;97.30;;;;;;4947257;29;20486;-90
2023/04/11 08:03:05;;;;;;;1.67;1.60;;;10.50;97.30;;;;;;4935712;29;20424;-91
2023/04/11 08:05:31;;;;;;;1.83;1.73;;;10.70;97.30;;;;;;4933403;29;20423;-89
2023/04/11 08:07:57;;;;;;;1.43;1.40;;;10.80;97.30;;;;;;4933380;29;20604;-91
2023/04/11 08:10:23;;;;;;;0.90;0.80;;;10.90;97.30;;;;;;4930970;29;20435;-89
2023/04/11 08:12:49;;;;;;;1.10;1.00;;;11.00;97.30;;;;;;4925421;29;20276;-90
2023/04/11 08:15:15;;;;;;;1.17;1.07;;;11.10;97.30;;;;;;4936033;29;20420;-92
2023/04/11 08:17:42;;;;;;;1.10;1.00;;;11.10;97.30;;;;;;4940219;28;20606;-91
2023/04/11 08:20:11;;;;;;;1.00;0.90;;;11.10;97.30;;;;;;4943657;29;20168;-90
2023/04/11 08:22:45;;;;;;;1.50;1.40;;;11.30;97.30;;;;;;4937872;29;20491;-90
2023/04/11 08:25:12;;;;;;;1.10;1.00;;;11.50;97.30;;;;;;4936778;29;20420;-90
2023/04/11 08:27:41;;;;;;;1.40;1.30;;;11.60;97.30;;;;;;4945838;29;20415;-89
2023/04/11 08:30:13;;;;;;;1.20;1.10;;;11.60;97.30;;;;;;4936151;29;20491;-89
2023/04/11 08:32:39;;;;;;;1.10;1.00;;;11.50;97.30;;;;;;4933494;29;20531;-91
2023/04/11 08:35:05;;;;;;;1.00;0.90;;;11.40;97.30;;;;;;4934154;29;20424;-89
2023/04/11 08:37:31;;;;;;;2.13;1.60;;;11.30;97.30;;;;;;4934698;29;20467;-89
2023/04/11 08:39:56;;;;;;;1.00;0.90;;;11.30;97.30;;;;;;4941726;29;20247;-90
2023/04/11 08:42:27;;;;;;;1.27;1.17;;;11.50;97.30;;;;;;4950872;29;20208;-90
2023/04/11 08:45:07;;;;;;;1.23;1.13;;;11.70;97.30;;;;;;4941384;29;20180;-91
2023/04/11 08:47:33;;;;;;;1.00;0.90;;;12.00;97.30;;;;;;4943946;29;20436;-90
2023/04/11 08:49:58;;;;;;;20.83;2.70;;;12.30;97.30;;;;;;4934872;29;20439;-88
2023/04/11 08:52:24;;;;;;;4.30;1.73;;;12.50;97.30;;;;;;4936838;29;20455;-88
2023/04/11 08:54:53;;;;;;;1.10;1.00;;;12.70;97.20;;;;;;4935955;29;20184;-91
2023/04/11 08:57:27;;;;;;;1.10;1.00;;;12.80;97.30;;;;;;4945100;29;21091;-90
2023/04/11 08:59:54;;;;;;;1.37;1.27;;;12.80;95.60;;;;;;4932178;29;20434;-89
2023/04/11 09:02:20;;;;;;;1.20;1.10;;;12.60;95.60;;;;;;4941564;29;20453;-90
2023/04/11 09:04:46;;;;;;;1.07;1.07;;;12.40;96.80;;;;;;4933741;29;20428;-89
2023/04/11 09:07:15;;;;;;;5.37;1.50;;;11.80;97.30;;;;;;4936221;29;20180;-87
2023/04/11 09:09:40;;;;;;;1.87;1.30;;;10.80;96.30;;;;;;4935928;29;20191;-89
2023/04/11 09:12:07;;;;;;;1.30;1.20;;;10.10;97.30;;;;;;4929063;28;20527;-88
2023/04/11 09:14:33;;;;;;;1.40;1.30;;;9.70;97.30;;;;;;4935283;29;20191;-87
2023/04/11 09:17:04;;;;;;;1.10;1.00;;;9.50;97.30;;;;;;4938359;29;20423;-87
2023/04/11 09:19:31;;;;;;;1.40;1.30;;;9.30;97.30;;;;;;4921125;29;20180;-88
2023/04/11 09:22:04;;;;;;;1.33;1.23;;;9.40;97.30;;;;;;4928200;29;20475;-87
2023/04/11 09:24:30;;;;;;;1.10;1.00;;;9.60;97.30;;;;;;4927458;29;20423;-87
2023/04/11 09:27:07;;;;;;;0.97;0.87;;;9.90;97.30;;;;;;4926874;29;20421;-88
2023/04/11 09:29:40;;;;;;;7.40;1.47;;;10.30;97.30;;;;;;4939037;29;20423;-88
2023/04/11 09:32:06;;;;;;;1.20;1.10;;;10.70;97.30;;;;;;4930622;29;20855;-87
2023/04/11 09:34:36;;;;;;;2.97;1.33;;;11.20;97.30;;;;;;4932242;29;20545;-89
2023/04/11 09:37:02;;;;;;;1.30;1.20;;;11.50;97.30;;;;;;4931651;29;21017;-89
2023/04/11 09:39:28;;;;;;;1.07;0.97;;;11.70;97.30;;;;;;4928857;29;20518;-88
2023/04/11 09:41:54;;;;;;;1.00;0.90;;;12.00;97.30;;;;;;4939102;29;20196;-89
2023/04/11 09:44:37;;;;;;;1.93;1.83;;;12.30;97.30;;;;;;4938586;29;20411;-90
2023/04/11 09:47:02;;;;;;;2.23;2.03;;;12.50;97.30;;;;;;4933668;29;20188;-90
2023/04/11 09:49:31;;;;;;;3.50;1.20;;;12.50;97.10;;;;;;4929569;29;20426;-92
2023/04/11 09:52:02;;;;;;;15.40;2.50;;;12.60;96.70;;;;;;4933193;28;20407;-90
2023/04/11 09:54:29;;;;;;;1.10;1.00;;;12.60;94.80;;;;;;4935028;29;20523;-90
2023/04/11 09:56:57;;;;;;;1.37;1.27;;;12.70;96.00;;;;;;4935588;29;20510;-90
2023/04/11 09:59:23;;;;;;;1.00;0.90;;;12.60;95.60;;;;;;4929784;28;20516;-90
2023/04/11 10:01:52;;;;;;;0.90;0.80;;;12.00;93.10;;;;;;4922955;29;20451;-89
2023/04/11 10:04:19;;;;;;;2.20;1.83;;;10.90;93.80;;;;;;4936666;29;20464;-89
2023/04/11 10:07:15;;;;;;;1.00;0.90;;;10.10;95.30;;;;;;4932418;29;20458;-89
2023/04/11 10:09:42;;;;;;;1.00;0.90;;;9.50;96.30;;;;;;4922288;29;20468;-89
2023/04/11 10:12:07;;;;;;;0.90;0.80;;;9.10;97.30;;;;;;4925262;29;20451;-90
2023/04/11 10:14:36;;;;;;;1.20;1.10;;;8.80;97.30;;;;;;4932437;29;20515;-90
2023/04/11 10:17:16;;;;;;;1.00;0.90;;;8.70;97.30;;;;;;4930853;29;20181;-90
2023/04/11 10:19:42;;;;;;;1.00;0.90;;;8.60;97.30;;;;;;4926999;29;20520;-90
2023/04/11 10:22:09;;;;;;;1.00;0.90;;;8.60;97.30;;;;;;4933430;29;20451;-89
2023/04/11 10:24:34;;;;;;;1.03;0.93;;;8.60;97.30;;;;;;4932719;29;20867;-89
2023/04/11 10:27:02;;;;;;;1.00;0.90;;;8.70;97.30;;;;;;4932847;29;20498;-89
2023/04/11 10:29:39;;;;;;;1.30;1.20;;;8.80;97.30;;;;;;4932457;29;20673;-89
2023/04/11 10:32:21;;;;;;;1.00;0.90;;;8.90;97.30;;;;;;4929626;29;21023;-89
2023/04/11 10:34:53;;;;;;;1.30;1.20;;;9.10;97.30;;;;;;4931370;29;20519;-88
2023/04/11 10:37:31;;;;;;;1.60;1.50;;;9.30;97.30;;;;;;4939640;28;20511;-90
2023/04/11 10:39:59;;;;;;;1.00;0.90;;;9.60;97.30;;;;;;4917796;29;20424;-89
2023/04/11 10:42:39;;;;;;;1.10;1.00;;;9.80;97.30;;;;;;4927510;29;20819;-89
2023/04/11 10:45:27;;;;;;;1.10;1.00;;;10.20;97.30;;;;;;4939830;29;20804;-89
2023/04/11 10:47:55;;;;;;;1.03;0.93;;;10.70;97.30;;;;;;4943475;28;20427;-88
2023/04/11 10:50:30;;;;;;;2.90;1.30;;;11.10;97.30;;;;;;4942636;28;20518;-89
2023/04/11 10:52:55;;;;;;;1.47;1.40;;;11.60;97.30;;;;;;4923862;29;20442;-89
2023/04/11 10:55:22;;;;;;;1.00;0.90;;;12.00;95.90;;;;;;4929505;29;21004;-88
2023/04/11 10:58:12;;;;;;;1.97;1.53;;;12.20;94.50;;;;;;4930215;29;20200;-88
2023/04/11 11:00:50;;;;;;;1.10;1.00;;;12.00;93.80;;;;;;4929043;29;20727;-90
2023/04/11 11:03:24;;;;;;;2.23;1.27;;;12.20;93.20;;;;;;4943435;29;20501;-91
2023/04/11 11:06:10;;;;;;;1.13;1.10;;;12.30;92.30;;;;;;4927870;29;20431;-89
2023/04/11 11:08:41;;;;;;;2.03;1.87;;;12.40;91.40;;;;;;4922776;29;20430;-88
2023/04/11 11:11:09;;;;;;;1.33;1.23;;;12.30;90.40;;;;;;4941872;29;20439;-89
2023/04/11 11:13:39;;;;;;;1.13;1.03;;;12.20;90.60;;;;;;4923903;29;20419;-89
2023/04/11 11:16:06;;;;;;;2.70;2.33;;;12.20;91.50;;;;;;4931893;29;20419;-88
2023/04/11 11:18:32;;;;;;;1.27;1.17;;;12.10;91.50;;;;;;4926606;29;20468;-88
2023/04/11 11:20:58;;;;;;;1.43;1.10;;;12.00;91.10;;;;;;4933119;29;20520;-88
2023/04/11 11:23:23;;;;;;;1.17;1.17;;;11.90;91.10;;;;;;4936393;29;20545;-89
2023/04/11 11:25:56;;;;;;;1.00;0.90;;;12.00;91.40;;;;;;4939294;29;20195;-88
2023/04/11 11:28:22;;;;;;;1.00;0.90;;;12.20;90.10;;;;;;4936739;28;20275;-88
2023/04/11 11:30:53;;;;;;;1.00;0.97;;;12.50;88.70;;;;;;4935934;29;20886;-86
2023/04/11 11:33:20;;;;;;;1.07;0.97;;;12.80;87.80;;;;;;4960801;28;20435;-91
2023/04/11 11:36:02;;;;;;;0.97;0.87;;;12.90;87.60;;;;;;4952232;28;20436;-90
2023/04/11 11:38:29;;;;;;;3.30;1.63;;;13.10;87.30;;;;;;4932916;29;20795;-89
2023/04/11 11:40:56;;;;;;;2.23;1.63;;;13.00;87.90;;;;;;4934704;29;20458;-88
2023/04/11 11:43:22;;;;;;;1.00;0.90;;;13.10;88.90;;;;;;4941027;28;20443;-89
2023/04/11 11:46:06;;;;;;;1.13;1.03;;;13.10;88.50;;;;;;4924989;29;20955;-89
2023/04/11 11:48:32;;;;;;;1.30;1.20;;;13.10;87.20;;;;;;4924323;29;20421;-89
2023/04/11 11:50:58;;;;;;;1.10;1.00;;;13.40;88.10;;;;;;4923388;29;20447;-90
2023/04/11 11:53:25;;;;;;;0.90;0.80;;;13.70;86.00;;;;;;4930122;29;20188;-90
2023/04/11 11:55:53;;;;;;;1.10;1.00;;;13.90;85.10;;;;;;4924918;29;20220;-88
2023/04/11 11:58:19;;;;;;;1.53;1.00;;;14.00;86.10;;;;;;4935564;29;20475;-89
2023/04/11 12:00:52;;;;;;;1.40;1.30;;;14.00;83.60;;;;;;4936985;29;20991;-90
2023/04/11 12:03:21;;;;;;;3.30;2.30;;;13.80;84.20;;;;;;4931251;29;20804;-89
2023/04/11 12:05:50;;;;;;;1.10;1.00;;;13.70;84.90;;;;;;4922358;29;20775;-91
2023/04/11 12:08:18;;;;;;;1.00;0.90;;;13.70;84.20;;;;;;4932037;29;20437;-90
2023/04/11 12:10:48;;;;;;;1.00;0.90;;;13.80;84.70;;;;;;4937736;29;20530;-90
2023/04/11 12:13:21;;;;;;;1.83;1.60;;;13.60;84.70;;;;;;4955575;28;20428;-89
2023/04/11 12:16:01;;;;;;;1.20;1.10;;;13.20;84.90;;;;;;4936733;29;20488;-88
2023/04/11 12:18:27;;;;;;;1.10;1.00;;;13.00;86.50;;;;;;4952382;28;20470;-89
2023/04/11 12:20:53;;;;;;;1.87;1.63;;;12.90;87.50;;;;;;4932889;29;21030;-89
2023/04/11 12:23:19;;;;;;;1.57;1.50;;;12.70;87.20;;;;;;4936638;29;20476;-90
2023/04/11 12:25:45;;;;;;;1.23;1.13;;;12.40;88.20;;;;;;4946473;28;20505;-90
2023/04/11 12:28:11;;;;;;;2.23;2.03;;;12.20;91.50;;;;;;4935715;29;20840;-89
2023/04/11 12:30:36;;;;;;;2.00;1.10;;;11.90;91.90;;;;;;4934362;29;20448;-91
2023/04/11 12:33:03;;;;;;;2.90;1.97;;;11.90;93.10;;;;;;4934388;29;20252;-88
2023/04/11 12:35:28;;;;;;;1.20;1.17;;;12.10;91.90;;;;;;4940092;29;20192;-89
2023/04/11 12:37:54;;;;;;;1.50;1.40;;;12.20;92.40;;;;;;4933111;29;20571;-89
2023/04/11 12:40:20;;;;;;;1.20;1.10;;;12.10;90.60;;;;;;4933653;29;20191;-90
2023/04/11 12:42:47;;;;;;;1.27;1.17;;;12.20;91.40;;;;;;4937879;29;20244;-89
2023/04/11 12:45:14;;;;;;;3.30;2.67;;;12.50;91.40;;;;;;4936065;29;20192;-89
2023/04/11 12:47:40;;;;;;;1.53;1.33;;;12.70;89.80;;;;;;4926638;29;20428;-90
2023/04/11 12:50:09;;;;;;;1.30;1.20;;;13.00;87.30;;;;;;4938038;29;20432;-89
2023/04/11 12:52:35;;;;;;;0.90;0.90;;;13.10;87.90;;;;;;4929900;29;20198;-90
2023/04/11 12:55:04;;;;;;;4.53;1.57;;;13.20;86.70;;;;;;4936463;29;20804;-90